LFLS/GNB METAR and TAF weather

Enter ICAO airport designator
Station Type Date Time Source
LFLS METAR 2021/09/23 17:00 UTC NOAA

LFLS 231700Z AUTO 25005KT CAVOK 22/12 Q1021 NOSIG


Station Type Date Time Source
LFLS Decoded METAR 2021/09/23 17:00 UTC NOAA

Grenoble / St. Geoirs, France (LFLS) 45-22N 005-20E 386M
Sep 23, 2021 - 01:00 PM EDT / 2021.09.23 1700 UTC
Wind: from the WSW (250 degrees) at 6 MPH (5 KT):0
Visibility: greater than 7 mile(s):0
Temperature: 71 F (22 C)
Dew Point: 53 F (12 C)
Relative Humidity: 53%
Pressure (altimeter): 30.15 in. Hg (1021 hPa)
ob: LFLS 231700Z AUTO 25005KT CAVOK 22/12 Q1021 NOSIG
cycle: 17

Station Type Date Time Source
LFLS TAF 2021/09/23 15:26 UTC NOAA

TAF LFLS 231400Z 2315/2415 23010KT CAVOK
BECMG 2316/2318 09004KT

Example: see airport list